Time;durP1;ratioP1;P1;durP2;ratioP2;P2;SDS_P1;SDS_P2;PMS_P1;PMS_P2;Temp;Humidity;BMP_temperature;BMP_pressure;BME280_temperature;BME280_humidity;BME280_pressure;Samples;Min_cycle;Max_cycle;Signal;HPM_P1;HPM_P2
2022/10/12 00:02:23;;;;;;;15.70;8.47;;;15.40;99.90;;;;;;5030819;28;20198;-61
2022/10/12 00:04:50;;;;;;;14.07;8.67;;;15.30;99.90;;;;;;5030135;28;20214;-59
2022/10/12 00:07:16;;;;;;;14.40;9.43;;;15.20;99.90;;;;;;5030502;28;20697;-59
2022/10/12 00:09:43;;;;;;;13.03;8.93;;;15.20;99.90;;;;;;5030455;28;20214;-59
2022/10/12 00:12:10;;;;;;;12.80;9.60;;;15.10;99.90;;;;;;5030847;28;20210;-65
2022/10/12 00:14:38;;;;;;;16.27;10.83;;;15.10;99.90;;;;;;5030633;28;20206;-62
2022/10/12 00:17:05;;;;;;;12.60;9.70;;;15.10;99.90;;;;;;5031014;28;20319;-60
2022/10/12 00:19:31;;;;;;;19.60;9.37;;;15.00;99.90;;;;;;5030549;28;20210;-60
2022/10/12 00:21:58;;;;;;;13.80;8.83;;;15.10;99.90;;;;;;5030301;28;20218;-60
2022/10/12 00:24:25;;;;;;;18.07;9.87;;;15.10;99.90;;;;;;5030740;28;20218;-62
2022/10/12 00:26:52;;;;;;;12.53;9.20;;;15.00;99.90;;;;;;5030380;28;20227;-61
2022/10/12 00:29:18;;;;;;;15.27;9.80;;;15.00;99.90;;;;;;5030563;28;20674;-62
2022/10/12 00:31:46;;;;;;;10.83;8.90;;;15.00;99.90;;;;;;5030498;28;20222;-59
2022/10/12 00:34:13;;;;;;;13.47;10.20;;;15.00;99.90;;;;;;5030703;28;20213;-60
2022/10/12 00:36:40;;;;;;;13.00;9.10;;;14.80;99.90;;;;;;5029446;28;20237;-59
2022/10/12 00:39:09;;;;;;;15.73;9.73;;;14.70;99.90;;;;;;5030861;28;20206;-60
2022/10/12 00:41:38;;;;;;;15.10;9.57;;;14.70;99.90;;;;;;5030870;28;20214;-62
2022/10/12 00:44:19;;;;;;;11.80;8.60;;;14.70;99.90;;;;;;5030400;28;20214;-62
2022/10/12 00:46:47;;;;;;;11.03;9.70;;;14.80;99.90;;;;;;5031850;28;20226;-64
2022/10/12 00:49:17;;;;;;;15.73;9.33;;;14.70;99.90;;;;;;5033341;28;20206;-62
2022/10/12 00:51:47;;;;;;;14.30;9.77;;;14.80;99.90;;;;;;5032731;28;20226;-62
2022/10/12 00:54:19;;;;;;;13.20;9.77;;;14.70;99.90;;;;;;5032805;28;20210;-62
2022/10/12 00:56:48;;;;;;;17.60;10.47;;;14.70;99.90;;;;;;5031827;28;20233;-63
2022/10/12 00:59:19;;;;;;;15.53;9.40;;;14.70;99.90;;;;;;5031883;28;20210;-62
2022/10/12 01:01:47;;;;;;;13.30;9.13;;;14.70;99.90;;;;;;5031562;28;20202;-62
2022/10/12 01:04:14;;;;;;;13.43;9.73;;;14.60;99.90;;;;;;5031581;28;20202;-61
2022/10/12 01:06:41;;;;;;;13.20;9.83;;;14.60;99.90;;;;;;5030986;28;20233;-62
2022/10/12 01:09:08;;;;;;;12.90;9.33;;;14.60;99.90;;;;;;5031749;28;20210;-63
2022/10/12 01:11:35;;;;;;;13.03;8.33;;;14.50;99.90;;;;;;5031502;28;20232;-62
2022/10/12 01:14:02;;;;;;;15.07;8.33;;;14.40;99.90;;;;;;5032038;28;20229;-62
2022/10/12 01:16:37;;;;;;;17.43;8.00;;;14.40;99.90;;;;;;5034771;28;20313;-62
2022/10/12 01:19:23;;;;;;;12.07;8.80;;;14.40;99.90;;;;;;5035721;28;20214;-63
2022/10/12 01:21:57;;;;;;;15.47;8.33;;;14.30;99.90;;;;;;5035349;28;20209;-63
2022/10/12 01:24:41;;;;;;;14.50;9.07;;;14.30;99.90;;;;;;5035402;28;20216;-62
2022/10/12 01:27:35;;;;;;;14.10;8.97;;;14.20;99.90;;;;;;5034640;28;20677;-61
2022/10/12 01:30:16;;;;;;;11.27;7.50;;;14.00;99.90;;;;;;5035331;28;20237;-61
2022/10/12 01:33:11;;;;;;;13.27;8.03;;;13.80;99.90;;;;;;5035421;28;20213;-63
2022/10/12 01:35:45;;;;;;;10.67;7.60;;;13.70;99.90;;;;;;5046885;22;20225;-58
2022/10/12 01:38:28;;;;;;;11.83;8.10;;;13.60;99.90;;;;;;5055852;28;20208;-58
2022/10/12 01:41:02;;;;;;;13.63;8.03;;;13.70;99.90;;;;;;5056380;28;20206;-57
2022/10/12 01:43:34;;;;;;;17.53;8.27;;;13.60;99.90;;;;;;5056358;28;20300;-57
2022/10/12 01:46:07;;;;;;;12.40;7.80;;;13.50;99.90;;;;;;5055612;28;20237;-58
2022/10/12 01:48:34;;;;;;;11.93;7.87;;;13.40;99.90;;;;;;5055999;28;20207;-58
2022/10/12 01:51:03;;;;;;;15.03;8.03;;;13.40;99.90;;;;;;5056023;28;20236;-58
2022/10/12 01:53:40;;;;;;;14.90;7.77;;;13.40;99.90;;;;;;5055727;28;20632;-58
2022/10/12 01:56:12;;;;;;;9.63;7.50;;;13.30;99.90;;;;;;5055315;28;20315;-58
2022/10/12 01:58:53;;;;;;;11.20;7.80;;;13.30;99.90;;;;;;5056092;28;20209;-59
2022/10/12 02:01:33;;;;;;;13.03;7.47;;;13.30;99.90;;;;;;5056088;28;20213;-58
2022/10/12 02:04:08;;;;;;;13.30;8.17;;;13.30;99.90;;;;;;5056041;28;20205;-58
2022/10/12 02:06:39;;;;;;;12.43;8.33;;;13.30;99.90;;;;;;5055870;28;20229;-58
2022/10/12 02:09:12;;;;;;;10.17;8.30;;;13.30;99.90;;;;;;5055840;28;20214;-58
2022/10/12 02:11:42;;;;;;;14.83;7.90;;;13.20;99.90;;;;;;5055358;28;20233;-58
2022/10/12 02:14:13;;;;;;;12.77;7.73;;;13.20;99.90;;;;;;5055228;28;20669;-58
2022/10/12 02:16:46;;;;;;;17.17;7.47;;;13.10;99.90;;;;;;5054435;28;20723;-58
2022/10/12 02:19:17;;;;;;;14.27;8.03;;;12.90;99.90;;;;;;5055407;28;20212;-58
2022/10/12 02:21:46;;;;;;;13.27;7.90;;;12.90;99.90;;;;;;5055169;28;20205;-58
2022/10/12 02:24:17;;;;;;;12.57;8.37;;;12.80;99.90;;;;;;5055264;28;20217;-58
2022/10/12 02:26:47;;;;;;;10.43;7.77;;;12.70;99.90;;;;;;5053174;28;20233;-58
2022/10/12 02:29:19;;;;;;;14.13;7.97;;;12.70;99.90;;;;;;5055194;28;20212;-58
2022/10/12 02:31:55;;;;;;;14.50;8.07;;;12.70;99.90;;;;;;5055193;28;20626;-58
2022/10/12 02:34:25;;;;;;;11.80;8.13;;;12.60;99.90;;;;;;5054879;28;20209;-58
2022/10/12 02:36:57;;;;;;;14.10;8.00;;;12.60;99.90;;;;;;5054098;28;20240;-58
2022/10/12 02:39:29;;;;;;;12.57;8.60;;;12.50;99.90;;;;;;5054474;28;20210;-58
2022/10/12 02:42:01;;;;;;;17.23;9.20;;;12.50;99.90;;;;;;5054407;28;20645;-58
2022/10/12 02:44:32;;;;;;;11.40;7.67;;;12.50;99.90;;;;;;5054553;28;20210;-58
2022/10/12 02:47:03;;;;;;;10.80;8.50;;;12.40;99.90;;;;;;5054410;28;20229;-58
2022/10/12 02:49:31;;;;;;;14.20;9.10;;;12.50;99.90;;;;;;5054567;28;20215;-58
2022/10/12 02:51:58;;;;;;;14.90;9.20;;;12.60;99.90;;;;;;5054381;28;20397;-58
2022/10/12 02:54:25;;;;;;;16.37;8.87;;;12.70;99.90;;;;;;5054401;28;20578;-57
2022/10/12 02:56:52;;;;;;;12.17;8.43;;;12.80;99.90;;;;;;5053868;28;20225;-58
2022/10/12 02:59:19;;;;;;;16.33;8.93;;;12.90;99.90;;;;;;5054299;28;20212;-58
2022/10/12 03:01:46;;;;;;;16.60;9.10;;;12.90;99.90;;;;;;5054273;28;20205;-58
2022/10/12 03:04:14;;;;;;;15.37;9.10;;;13.00;99.90;;;;;;5053912;28;20201;-58
2022/10/12 03:06:41;;;;;;;11.40;7.80;;;13.10;99.90;;;;;;5053238;28;20229;-58
2022/10/12 03:09:08;;;;;;;14.23;9.83;;;13.10;99.90;;;;;;5054128;28;20644;-58
2022/10/12 03:11:36;;;;;;;14.37;8.67;;;13.20;99.90;;;;;;5054051;28;20240;-57
2022/10/12 03:14:03;;;;;;;11.53;7.60;;;13.20;99.90;;;;;;5054195;28;20210;-58
2022/10/12 03:16:30;;;;;;;10.53;8.47;;;13.40;99.90;;;;;;5053806;28;20229;-58
2022/10/12 03:18:57;;;;;;;12.10;7.83;;;13.40;99.90;;;;;;5053971;28;20236;-58
2022/10/12 03:21:25;;;;;;;14.07;8.20;;;13.50;99.90;;;;;;5054342;28;20213;-58
2022/10/12 03:23:52;;;;;;;12.77;8.73;;;13.60;99.90;;;;;;5054041;28;20233;-58
2022/10/12 03:26:19;;;;;;;20.47;11.87;;;13.60;99.90;;;;;;5053407;28;20222;-58
2022/10/12 03:28:46;;;;;;;9.53;7.60;;;13.60;99.90;;;;;;5053717;28;20309;-57
2022/10/12 03:31:13;;;;;;;13.93;7.50;;;13.60;99.90;;;;;;5053688;28;20221;-58
2022/10/12 03:33:40;;;;;;;12.67;7.37;;;13.60;99.90;;;;;;5053371;28;20577;-57
2022/10/12 03:36:07;;;;;;;12.27;7.60;;;13.60;99.90;;;;;;5052722;28;20739;-57
2022/10/12 03:38:36;;;;;;;11.23;7.27;;;13.50;99.90;;;;;;5053835;28;20202;-58
2022/10/12 03:41:02;;;;;;;14.70;7.20;;;13.40;99.90;;;;;;5053793;28;20198;-58
2022/10/12 03:43:29;;;;;;;11.83;7.47;;;13.30;99.90;;;;;;5053452;28;20736;-58
2022/10/12 03:45:56;;;;;;;11.90;7.83;;;13.30;99.90;;;;;;5053065;28;20344;-58
2022/10/12 03:48:23;;;;;;;10.27;7.07;;;13.10;99.90;;;;;;5053412;28;20209;-60
2022/10/12 03:50:50;;;;;;;10.07;7.33;;;13.10;99.90;;;;;;5054010;28;20210;-58
2022/10/12 03:53:17;;;;;;;11.47;7.47;;;13.10;99.90;;;;;;5053508;28;20220;-59
2022/10/12 03:55:46;;;;;;;9.70;7.27;;;13.00;99.90;;;;;;5052701;28;20252;-58
2022/10/12 03:58:13;;;;;;;12.67;8.47;;;13.00;99.90;;;;;;5053227;28;20304;-58
2022/10/12 04:00:40;;;;;;;18.50;9.37;;;13.10;99.90;;;;;;5053331;28;20677;-58
2022/10/12 04:03:07;;;;;;;18.13;8.10;;;13.10;99.90;;;;;;5053461;28;20197;-58
2022/10/12 04:05:34;;;;;;;18.80;8.20;;;13.10;99.90;;;;;;5052701;28;20221;-58
2022/10/12 04:08:01;;;;;;;9.80;7.80;;;13.20;99.90;;;;;;5053528;28;20592;-58
2022/10/12 04:10:28;;;;;;;13.73;7.70;;;13.10;99.90;;;;;;5053992;28;20213;-59
2022/10/12 04:12:56;;;;;;;11.30;7.40;;;13.10;99.90;;;;;;5053587;28;20655;-58
2022/10/12 04:15:23;;;;;;;10.53;7.47;;;13.00;99.90;;;;;;5053068;28;20226;-58
2022/10/12 04:17:50;;;;;;;10.57;7.90;;;13.00;99.90;;;;;;5054395;28;20202;-58
2022/10/12 04:20:17;;;;;;;11.53;8.30;;;12.90;99.90;;;;;;5054390;28;20322;-58
2022/10/12 04:22:44;;;;;;;14.60;9.57;;;12.80;99.90;;;;;;5054076;28;20212;-58
2022/10/12 04:25:11;;;;;;;10.63;8.27;;;12.80;99.90;;;;;;5053601;28;20210;-59
2022/10/12 04:27:38;;;;;;;15.17;8.40;;;12.80;99.90;;;;;;5053861;28;20209;-58
2022/10/12 04:30:08;;;;;;;11.40;8.80;;;12.80;99.90;;;;;;5054041;28;20213;-57
2022/10/12 04:32:35;;;;;;;25.33;14.87;;;12.80;99.90;;;;;;5053607;28;20676;-58
2022/10/12 04:35:01;;;;;;;13.00;8.43;;;12.80;99.90;;;;;;5053089;28;20205;-58
2022/10/12 04:37:28;;;;;;;10.53;8.97;;;12.80;99.90;;;;;;5052979;28;20205;-59
2022/10/12 04:39:55;;;;;;;16.03;9.37;;;12.80;99.90;;;;;;5052829;28;20205;-59
2022/10/12 04:42:22;;;;;;;21.93;12.67;;;12.80;99.90;;;;;;5052675;28;20562;-59
2022/10/12 04:44:49;;;;;;;15.07;8.87;;;12.90;99.90;;;;;;5052998;28;20218;-59
2022/10/12 04:47:17;;;;;;;18.27;11.17;;;12.90;99.90;;;;;;5052099;28;20233;-59
2022/10/12 04:49:44;;;;;;;18.40;12.23;;;13.00;99.90;;;;;;5051934;28;20299;-59
2022/10/12 04:52:11;;;;;;;12.00;9.30;;;13.10;99.90;;;;;;5052664;28;20225;-59
2022/10/12 04:54:37;;;;;;;15.27;9.60;;;13.10;99.90;;;;;;5052704;28;20236;-59
2022/10/12 04:57:04;;;;;;;14.80;9.13;;;13.20;99.90;;;;;;5051853;28;20267;-59
2022/10/12 04:59:31;;;;;;;10.53;9.10;;;13.10;99.90;;;;;;5053075;28;20665;-58
2022/10/12 05:01:57;;;;;;;14.20;9.70;;;13.20;99.90;;;;;;5052673;28;20210;-59
2022/10/12 05:04:26;;;;;;;13.87;9.73;;;13.10;99.90;;;;;;5052301;28;20312;-58
2022/10/12 05:06:53;;;;;;;18.00;12.07;;;13.20;99.90;;;;;;5052446;28;20226;-58
2022/10/12 05:09:19;;;;;;;15.60;9.93;;;13.30;99.90;;;;;;5051841;28;20209;-59
2022/10/12 05:11:46;;;;;;;14.40;8.70;;;13.50;99.90;;;;;;5052141;28;20221;-58
2022/10/12 05:14:13;;;;;;;74.97;64.17;;;13.60;99.90;;;;;;5052045;28;20295;-59
2022/10/12 05:16:40;;;;;;;20.20;12.67;;;13.70;99.90;;;;;;5051473;28;20236;-59
2022/10/12 05:19:07;;;;;;;13.87;10.83;;;13.80;99.90;;;;;;5052320;28;20213;-58
2022/10/12 05:21:35;;;;;;;12.17;9.77;;;13.90;99.90;;;;;;5052456;28;20558;-59
2022/10/12 05:24:02;;;;;;;13.73;9.03;;;14.00;99.90;;;;;;5052354;28;20300;-58
2022/10/12 05:26:29;;;;;;;21.97;9.77;;;14.00;99.90;;;;;;5051828;28;20602;-58
2022/10/12 05:28:55;;;;;;;16.43;8.07;;;14.10;99.90;;;;;;5052239;28;20201;-58
2022/10/12 05:31:22;;;;;;;14.03;9.10;;;14.20;99.90;;;;;;5051814;28;20595;-58
2022/10/12 05:33:49;;;;;;;12.37;9.23;;;14.20;99.90;;;;;;5052406;28;20206;-58
2022/10/12 05:36:16;;;;;;;16.47;10.10;;;14.30;99.90;;;;;;5051245;28;20241;-59
2022/10/12 05:38:44;;;;;;;14.40;10.63;;;14.30;99.90;;;;;;5051646;28;20229;-57
2022/10/12 05:41:11;;;;;;;14.00;10.60;;;14.30;99.90;;;;;;5051561;28;20206;-58
2022/10/12 05:43:38;;;;;;;15.17;9.97;;;14.20;99.90;;;;;;5052525;28;20202;-58
2022/10/12 05:46:05;;;;;;;13.33;9.17;;;14.20;99.90;;;;;;5051310;28;20512;-58
2022/10/12 05:48:32;;;;;;;14.10;9.10;;;14.20;99.90;;;;;;5051778;28;20194;-58
2022/10/12 05:50:59;;;;;;;14.53;9.83;;;14.10;99.90;;;;;;5051471;28;20205;-58
2022/10/12 05:53:26;;;;;;;18.17;9.70;;;14.10;99.90;;;;;;5051468;28;20764;-58
2022/10/12 05:55:56;;;;;;;19.43;10.50;;;14.10;99.90;;;;;;5051677;28;20241;-57
2022/10/12 05:58:23;;;;;;;12.90;10.13;;;14.10;99.90;;;;;;5052078;28;20209;-58
2022/10/12 06:00:50;;;;;;;17.07;10.40;;;14.20;99.90;;;;;;5053637;28;20248;-58
2022/10/12 06:03:17;;;;;;;13.80;10.03;;;14.30;99.90;;;;;;5055502;28;20400;-58
2022/10/12 06:05:44;;;;;;;15.33;10.37;;;14.40;99.90;;;;;;5054545;28;20226;-59
2022/10/12 06:08:11;;;;;;;12.57;9.83;;;14.40;99.90;;;;;;5055773;28;20213;-57
2022/10/12 06:10:43;;;;;;;11.67;10.03;;;14.50;99.90;;;;;;5055600;28;20202;-58
2022/10/12 06:13:12;;;;;;;15.60;10.27;;;14.40;99.90;;;;;;5058670;28;20726;-58
2022/10/12 06:15:38;;;;;;;14.97;9.87;;;14.40;99.90;;;;;;5056247;28;20229;-58
2022/10/12 06:18:05;;;;;;;15.30;9.93;;;14.50;99.90;;;;;;5056843;28;20202;-58
2022/10/12 06:20:32;;;;;;;14.50;8.83;;;14.50;99.90;;;;;;5055996;28;20227;-57
2022/10/12 06:22:59;;;;;;;13.07;9.03;;;14.60;99.90;;;;;;5056570;28;20208;-57
2022/10/12 06:25:26;;;;;;;13.83;8.97;;;14.60;99.90;;;;;;5056233;28;20233;-57
2022/10/12 06:27:53;;;;;;;14.47;9.70;;;14.70;99.90;;;;;;5056615;28;20206;-57
2022/10/12 06:30:21;;;;;;;12.17;9.60;;;14.80;99.90;;;;;;5056982;28;20202;-57
2022/10/12 06:32:48;;;;;;;14.83;9.17;;;14.90;99.90;;;;;;5057407;28;20226;-57
2022/10/12 06:35:15;;;;;;;12.27;8.77;;;14.90;99.90;;;;;;5056807;28;20673;-57
2022/10/12 06:37:48;;;;;;;14.73;8.77;;;14.90;99.90;;;;;;5057728;28;20213;-56
2022/10/12 06:40:16;;;;;;;12.10;8.80;;;14.90;99.90;;;;;;5057813;28;20216;-56
2022/10/12 06:42:42;;;;;;;15.63;9.93;;;15.00;99.90;;;;;;5057837;28;20220;-57
2022/10/12 06:45:10;;;;;;;14.67;9.40;;;15.00;99.90;;;;;;5057577;28;20251;-57
2022/10/12 06:47:38;;;;;;;12.70;8.73;;;15.00;99.90;;;;;;5058045;28;20202;-57
2022/10/12 06:50:07;;;;;;;11.43;8.63;;;15.10;99.90;;;;;;5058680;28;20206;-57
2022/10/12 06:52:34;;;;;;;12.87;9.33;;;15.20;99.90;;;;;;5059073;28;20228;-57
2022/10/12 06:55:01;;;;;;;13.23;9.37;;;15.30;99.90;;;;;;5058331;28;20592;-57
2022/10/12 06:57:28;;;;;;;14.00;9.60;;;15.40;99.90;;;;;;5057072;28;20217;-57
2022/10/12 06:59:55;;;;;;;13.73;9.37;;;15.50;99.90;;;;;;5057434;28;20300;-57
2022/10/12 07:02:22;;;;;;;14.10;9.83;;;15.50;99.90;;;;;;5056998;28;20204;-57
2022/10/12 07:04:51;;;;;;;11.60;9.00;;;15.60;99.90;;;;;;5056995;28;20236;-57
2022/10/12 07:07:19;;;;;;;13.70;9.17;;;15.70;99.90;;;;;;5056567;28;20244;-57
2022/10/12 07:09:46;;;;;;;13.77;9.40;;;15.90;99.90;;;;;;5057973;28;20259;-57
2022/10/12 07:12:13;;;;;;;15.03;10.13;;;15.90;99.90;;;;;;5056206;28;20221;-57
2022/10/12 07:14:39;;;;;;;12.63;10.50;;;16.10;99.90;;;;;;5056979;28;20206;-57
2022/10/12 07:17:06;;;;;;;22.03;11.30;;;16.20;99.90;;;;;;5057842;28;20247;-57
2022/10/12 07:19:33;;;;;;;18.40;10.87;;;16.30;99.90;;;;;;5057471;28;20202;-59
2022/10/12 07:22:01;;;;;;;14.07;10.20;;;16.20;99.90;;;;;;5057402;28;20209;-58
2022/10/12 07:24:35;;;;;;;14.80;10.47;;;16.20;99.90;;;;;;5056519;28;20236;-58
2022/10/12 07:27:02;;;;;;;13.83;10.60;;;16.20;99.90;;;;;;5055285;28;20605;-57
2022/10/12 07:29:31;;;;;;;16.60;10.43;;;16.50;99.90;;;;;;5055283;28;20217;-57
2022/10/12 07:31:58;;;;;;;15.20;10.17;;;16.70;99.90;;;;;;5055527;28;20209;-58
2022/10/12 07:34:25;;;;;;;19.88;11.82;;;16.90;99.90;;;;;;5055151;28;20210;-60
2022/10/12 07:36:51;;;;;;;14.38;10.20;;;17.20;99.90;;;;;;5074299;22;20644;-65
2022/10/12 07:39:21;;;;;;;15.02;10.43;;;17.30;99.90;;;;;;5064200;28;20209;-65
2022/10/12 07:41:47;;;;;;;17.20;11.55;;;17.40;99.90;;;;;;5073071;28;20209;-65
2022/10/12 07:44:14;;;;;;;20.98;11.13;;;17.50;99.90;;;;;;5072639;28;20197;-65
2022/10/12 07:46:41;;;;;;;17.65;11.00;;;17.50;99.90;;;;;;5071735;28;20228;-66
2022/10/12 07:49:09;;;;;;;14.80;10.73;;;17.60;99.90;;;;;;5072521;28;20205;-65
2022/10/12 07:51:36;;;;;;;17.25;11.02;;;17.70;99.90;;;;;;5072515;28;20209;-66
2022/10/12 07:54:03;;;;;;;17.23;10.85;;;18.00;99.90;;;;;;5072349;28;20255;-65
2022/10/12 07:56:31;;;;;;;15.88;12.70;;;18.20;99.90;;;;;;5071620;28;20229;-67
2022/10/12 07:58:58;;;;;;;18.63;12.77;;;18.20;99.90;;;;;;5072642;28;20301;-67
2022/10/12 08:01:26;;;;;;;16.42;12.30;;;18.20;99.90;;;;;;5072438;28;20212;-67
2022/10/12 08:03:54;;;;;;;20.83;13.55;;;18.10;99.90;;;;;;5072373;28;20205;-65
2022/10/12 08:06:23;;;;;;;21.92;14.43;;;18.10;99.90;;;;;;5071956;28;20228;-67
2022/10/12 08:08:50;;;;;;;20.75;14.23;;;18.00;99.90;;;;;;5072035;28;20660;-65
2022/10/12 08:11:18;;;;;;;21.85;13.23;;;18.00;99.90;;;;;;5072260;28;20208;-65
2022/10/12 08:13:47;;;;;;;19.77;14.15;;;17.80;99.90;;;;;;5072177;28;20225;-66
2022/10/12 08:16:17;;;;;;;21.38;14.38;;;17.80;99.90;;;;;;5071394;28;20236;-66
2022/10/12 08:18:44;;;;;;;24.63;15.05;;;17.80;99.90;;;;;;5072067;28;20209;-66
2022/10/12 08:21:13;;;;;;;21.10;15.80;;;17.80;99.90;;;;;;5071855;28;20197;-66
2022/10/12 08:23:40;;;;;;;19.77;14.35;;;17.90;99.90;;;;;;5071048;28;20216;-66
2022/10/12 08:26:07;;;;;;;22.90;14.25;;;18.10;99.90;;;;;;5071851;28;20221;-66
2022/10/12 08:28:34;;;;;;;20.27;14.43;;;18.40;99.90;;;;;;5072285;28;20205;-68
2022/10/12 08:31:06;;;;;;;20.38;13.88;;;18.70;99.90;;;;;;5072388;28;20232;-65
2022/10/12 08:33:33;;;;;;;19.23;14.02;;;18.90;99.90;;;;;;5072009;28;20228;-66
2022/10/12 08:36:02;;;;;;;21.33;12.82;;;19.20;99.90;;;;;;5071300;28;20233;-66
2022/10/12 08:38:30;;;;;;;18.38;13.27;;;19.50;99.90;;;;;;5072681;28;20217;-66
2022/10/12 08:41:03;;;;;;;17.83;13.30;;;19.60;99.90;;;;;;5072002;28;20623;-66
2022/10/12 08:43:40;;;;;;;21.38;13.38;;;19.80;99.90;;;;;;5071913;28;20695;-66
2022/10/12 08:46:08;;;;;;;22.92;13.40;;;19.90;99.90;;;;;;5071078;28;20224;-66
2022/10/12 08:48:45;;;;;;;17.20;12.80;;;19.80;99.90;;;;;;5071717;28;20573;-66
2022/10/12 08:51:16;;;;;;;16.92;12.15;;;19.60;99.90;;;;;;5071840;28;20204;-65
2022/10/12 08:53:51;;;;;;;18.73;12.90;;;19.30;99.90;;;;;;5071727;28;20228;-66
2022/10/12 08:56:18;;;;;;;19.45;13.27;;;19.10;99.90;;;;;;5071257;28;20224;-65
2022/10/12 08:58:47;;;;;;;17.98;13.32;;;18.90;99.90;;;;;;5071826;28;20204;-65
2022/10/12 09:01:23;;;;;;;23.05;13.73;;;18.80;99.90;;;;;;5072052;28;20250;-64
2022/10/12 09:04:00;;;;;;;16.33;12.05;;;18.90;99.90;;;;;;5072042;28;20518;-65
2022/10/12 09:06:33;;;;;;;16.23;11.05;;;18.90;99.90;;;;;;5071170;28;20273;-66
2022/10/12 09:09:09;;;;;;;17.63;11.93;;;18.80;99.90;;;;;;5071446;28;20204;-64
2022/10/12 09:11:49;;;;;;;17.02;10.68;;;18.70;99.90;;;;;;5071534;28;20232;-66
2022/10/12 09:14:22;;;;;;;16.98;11.77;;;18.90;99.90;;;;;;5071371;28;20224;-66
2022/10/12 09:16:52;;;;;;;21.58;11.65;;;19.10;99.90;;;;;;5070669;28;20787;-65
2022/10/12 09:19:20;;;;;;;15.82;11.35;;;19.50;99.90;;;;;;5071201;28;20211;-65
2022/10/12 09:21:49;;;;;;;13.10;10.23;;;19.90;99.90;;;;;;5063008;28;20206;-64
2022/10/12 09:24:18;;;;;;;17.38;10.27;;;20.30;99.90;;;;;;5050762;28;20208;-65
2022/10/12 09:26:48;;;;;;;18.80;11.10;;;20.70;99.90;;;;;;5069587;28;20225;-62
2022/10/12 09:29:23;;;;;;;13.30;9.23;;;21.10;99.90;;;;;;5069952;28;20205;-69
2022/10/12 09:32:13;;;;;;;14.27;8.52;;;21.30;99.90;;;;;;5069889;28;20208;-64
2022/10/12 09:34:40;;;;;;;16.33;8.50;;;21.40;99.90;;;;;;5070525;28;20224;-69
2022/10/12 09:37:10;;;;;;;14.93;8.75;;;21.50;99.90;;;;;;5073074;28;20240;-69
2022/10/12 09:39:37;;;;;;;10.35;8.10;;;21.70;99.90;;;;;;5073886;28;20213;-68
2022/10/12 09:42:04;;;;;;;11.95;8.07;;;21.80;99.90;;;;;;5074074;28;20587;-68
2022/10/12 09:44:34;;;;;;;14.27;7.95;;;21.80;99.90;;;;;;5073502;28;20197;-69
2022/10/12 09:47:04;;;;;;;10.02;7.88;;;21.70;99.90;;;;;;5073226;28;20590;-68
2022/10/12 09:49:42;;;;;;;12.07;8.05;;;21.70;99.90;;;;;;5073802;28;20242;-68
2022/10/12 09:52:09;;;;;;;18.27;8.27;;;21.60;99.90;;;;;;5074105;28;20216;-66
2022/10/12 09:54:40;;;;;;;13.13;8.57;;;21.70;99.90;;;;;;5073429;28;20231;-68
2022/10/12 09:57:07;;;;;;;16.27;8.60;;;21.70;99.90;;;;;;5072431;28;20654;-64
2022/10/12 09:59:38;;;;;;;12.27;8.18;;;21.70;99.90;;;;;;5073380;28;20205;-64
2022/10/12 10:02:15;;;;;;;12.60;8.35;;;21.70;99.90;;;;;;5073615;28;20209;-65
2022/10/12 10:04:43;;;;;;;11.70;7.90;;;21.70;99.90;;;;;;5074033;28;20205;-64
2022/10/12 10:07:21;;;;;;;12.65;8.40;;;21.60;99.90;;;;;;5072826;28;20233;-64
2022/10/12 10:09:49;;;;;;;11.70;8.60;;;21.70;99.90;;;;;;5072442;28;20255;-63
2022/10/12 10:12:23;;;;;;;14.18;8.23;;;21.70;99.90;;;;;;5073173;28;20211;-63
2022/10/12 10:14:52;;;;;;;12.93;8.38;;;21.70;99.90;;;;;;5073225;28;20228;-64
2022/10/12 10:17:25;;;;;;;17.08;8.60;;;21.70;99.90;;;;;;5073291;28;20224;-64
2022/10/12 10:19:53;;;;;;;12.43;8.68;;;21.70;99.90;;;;;;5072890;28;20696;-64
2022/10/12 10:22:21;;;;;;;12.80;8.40;;;21.70;99.90;;;;;;5072526;28;20616;-64
2022/10/12 10:24:51;;;;;;;11.48;7.72;;;21.60;99.90;;;;;;5073134;28;20205;-64
2022/10/12 10:27:31;;;;;;;14.23;8.18;;;21.50;99.90;;;;;;5070397;28;20229;-64
2022/10/12 10:30:10;;;;;;;10.95;8.07;;;21.50;99.90;;;;;;5054000;28;20675;-64
2022/10/12 10:32:38;;;;;;;12.32;7.82;;;21.60;99.90;;;;;;5053630;28;20210;-65
2022/10/12 10:35:17;;;;;;;13.10;8.48;;;21.60;99.90;;;;;;5052824;28;20237;-62
2022/10/12 10:37:46;;;;;;;16.83;7.85;;;21.60;99.90;;;;;;5052881;28;20582;-62
2022/10/12 10:40:20;;;;;;;10.68;8.00;;;21.50;99.90;;;;;;5052727;28;20205;-63
2022/10/12 10:42:50;;;;;;;12.95;7.90;;;21.60;99.90;;;;;;5053077;28;20210;-63
2022/10/12 10:45:23;;;;;;;14.63;10.43;;;21.40;99.90;;;;;;5053090;28;20201;-64
2022/10/12 10:48:00;;;;;;;12.13;8.90;;;21.30;99.90;;;;;;5051070;28;20216;-64
2022/10/12 10:50:32;;;;;;;13.27;8.13;;;21.30;99.90;;;;;;5053043;28;20208;-64
2022/10/12 10:53:00;;;;;;;12.35;7.63;;;21.50;99.90;;;;;;5052341;28;20229;-64
2022/10/12 10:55:41;;;;;;;10.68;7.65;;;21.60;99.90;;;;;;5052258;28;20229;-64
2022/10/12 10:58:24;;;;;;;13.57;8.02;;;21.60;99.90;;;;;;5052570;28;20205;-64
2022/10/12 11:00:53;;;;;;;11.70;7.65;;;21.60;99.90;;;;;;5052623;28;20209;-64
2022/10/12 11:03:26;;;;;;;13.98;8.07;;;21.70;99.90;;;;;;5052364;28;20251;-64
2022/10/12 11:05:56;;;;;;;11.65;7.97;;;21.70;99.90;;;;;;5051604;28;20708;-64
2022/10/12 11:08:26;;;;;;;10.43;7.32;;;21.70;99.90;;;;;;5052397;28;20217;-63
2022/10/12 11:10:58;;;;;;;15.65;7.80;;;21.60;99.90;;;;;;5052057;28;20716;-64
2022/10/12 11:13:31;;;;;;;12.90;8.43;;;21.70;99.90;;;;;;5052374;28;20209;-64
2022/10/12 11:16:03;;;;;;;11.98;8.00;;;21.70;99.90;;;;;;5051406;28;20645;-63
2022/10/12 11:18:38;;;;;;;11.00;7.25;;;21.70;99.90;;;;;;5051929;28;20209;-63
2022/10/12 11:21:11;;;;;;;9.60;7.90;;;21.70;99.90;;;;;;5052702;28;20213;-62
2022/10/12 11:23:44;;;;;;;13.77;7.97;;;21.60;99.90;;;;;;5051805;28;20237;-63
2022/10/12 11:26:18;;;;;;;9.45;7.70;;;21.50;99.90;;;;;;5051504;28;20225;-63
2022/10/12 11:28:45;;;;;;;9.27;7.20;;;21.30;99.90;;;;;;5052038;28;20212;-63
2022/10/12 11:31:20;;;;;;;16.70;7.45;;;21.20;99.90;;;;;;5052080;28;20209;-62
2022/10/12 11:33:49;;;;;;;11.68;7.40;;;21.30;99.90;;;;;;5057359;28;20227;-63
2022/10/12 11:36:20;;;;;;;8.82;6.70;;;21.50;99.90;;;;;;5070580;28;20326;-64
2022/10/12 11:38:49;;;;;;;10.13;7.28;;;21.70;99.90;;;;;;5072353;28;20714;-62
2022/10/12 11:41:19;;;;;;;10.15;6.78;;;21.90;99.90;;;;;;5071797;28;20213;-64
2022/10/12 11:43:51;;;;;;;10.63;7.38;;;22.10;99.90;;;;;;5071629;28;20200;-62
2022/10/12 11:46:23;;;;;;;10.40;7.35;;;22.30;99.90;;;;;;5071674;28;20232;-62
2022/10/12 11:48:54;;;;;;;11.10;6.93;;;22.30;99.90;;;;;;5071212;28;20657;-63
2022/10/12 11:51:21;;;;;;;10.30;6.10;;;22.30;99.90;;;;;;5072106;28;20215;-63
2022/10/12 11:53:57;;;;;;;10.13;6.57;;;22.40;99.90;;;;;;5071224;28;20279;-62
2022/10/12 11:56:29;;;;;;;13.45;7.43;;;22.60;99.90;;;;;;5071151;28;20259;-64
2022/10/12 11:58:58;;;;;;;13.43;7.10;;;22.90;99.90;;;;;;5070983;28;20201;-63
2022/10/12 12:01:48;;;;;;;8.57;6.18;;;23.10;99.90;;;;;;5071970;28;20258;-63
2022/10/12 12:04:25;;;;;;;10.20;6.32;;;23.00;99.90;;;;;;5062291;28;20201;-62
2022/10/12 12:06:58;;;;;;;13.75;6.97;;;22.60;99.90;;;;;;5071267;28;20631;-64
2022/10/12 12:09:40;;;;;;;10.10;7.35;;;22.50;99.90;;;;;;5071688;28;20212;-64
2022/10/12 12:12:22;;;;;;;10.88;7.07;;;22.50;99.90;;;;;;5071548;28;20208;-66
2022/10/12 12:15:28;;;;;;;11.55;6.30;;;22.60;99.90;;;;;;5071362;28;20221;-63
2022/10/12 12:18:13;;;;;;;16.05;7.55;;;22.60;99.90;;;;;;5071227;28;20208;-63
2022/10/12 12:21:04;;;;;;;11.45;8.02;;;22.60;99.90;;;;;;5071133;28;20308;-63
2022/10/12 12:23:38;;;;;;;8.45;6.65;;;22.60;99.90;;;;;;5071041;28;20379;-64
2022/10/12 12:26:12;;;;;;;10.35;6.72;;;22.80;99.90;;;;;;5070928;28;20595;-64
2022/10/12 12:28:42;;;;;;;13.45;6.75;;;22.70;99.90;;;;;;5071210;28;20204;-64
2022/10/12 12:31:14;;;;;;;10.40;7.05;;;22.70;99.90;;;;;;5072022;28;20205;-66
2022/10/12 12:33:44;;;;;;;12.98;6.50;;;22.80;99.90;;;;;;5073359;28;20231;-65
2022/10/12 12:36:15;;;;;;;9.82;7.15;;;22.80;99.90;;;;;;5071807;28;20237;-63
2022/10/12 12:38:49;;;;;;;11.57;7.22;;;22.90;99.90;;;;;;5058329;28;20695;-64
2022/10/12 12:41:17;;;;;;;10.05;6.65;;;23.00;99.90;;;;;;5052832;28;20206;-64
2022/10/12 12:44:04;;;;;;;12.13;6.15;;;23.00;99.90;;;;;;5052052;28;20201;-65
2022/10/12 12:47:10;;;;;;;8.90;5.82;;;22.90;99.90;;;;;;5051106;28;20221;-64
2022/10/12 12:49:42;;;;;;;11.82;6.80;;;22.90;99.90;;;;;;4984902;28;20205;-64
2022/10/12 12:52:18;;;;;;;7.80;6.38;;;23.10;99.90;;;;;;5050442;28;20580;-64